Time;durP1;ratioP1;P1;durP2;ratioP2;P2;SDS_P1;SDS_P2;PMS_P1;PMS_P2;Temp;Humidity;BMP_temperature;BMP_pressure;BME280_temperature;BME280_humidity;BME280_pressure;Samples;Min_cycle;Max_cycle;Signal;HPM_P1;HPM_P2
2024/02/12 00:02:02;;;;;;;154.23;144.95;;;9.10;99.90;;;;;;5032525;28;20041;-76
2024/02/12 00:04:29;;;;;;;165.88;156.18;;;9.20;99.90;;;;;;5033431;28;20029;-75
2024/02/12 00:06:58;;;;;;;161.50;151.43;;;9.10;99.90;;;;;;5031809;28;20053;-76
2024/02/12 00:09:24;;;;;;;146.82;138.30;;;9.10;99.90;;;;;;5032102;28;20034;-76
2024/02/12 00:11:51;;;;;;;173.25;163.07;;;9.10;99.90;;;;;;5033071;28;20049;-76
2024/02/12 00:14:19;;;;;;;172.07;162.02;;;9.10;99.90;;;;;;5033448;28;20034;-76
2024/02/12 00:16:45;;;;;;;150.88;141.98;;;9.20;99.90;;;;;;5031721;28;20042;-76
2024/02/12 00:19:12;;;;;;;146.73;137.95;;;9.20;99.90;;;;;;5033154;28;20033;-75
2024/02/12 00:21:45;;;;;;;185.95;175.00;;;9.20;99.90;;;;;;5031702;28;20037;-76
2024/02/12 00:24:11;;;;;;;182.15;170.93;;;9.20;99.90;;;;;;5030645;28;20051;-76
2024/02/12 00:26:40;;;;;;;184.73;173.30;;;9.20;99.90;;;;;;5028424;28;20038;-76
2024/02/12 00:29:08;;;;;;;191.93;180.25;;;9.20;99.90;;;;;;5039804;28;20032;-76
2024/02/12 00:31:35;;;;;;;206.48;193.75;;;9.20;99.90;;;;;;5038049;28;20437;-76
2024/02/12 00:34:01;;;;;;;207.35;194.73;;;9.20;99.90;;;;;;5014981;28;20060;-76
2024/02/12 00:36:30;;;;;;;182.55;171.68;;;9.20;99.90;;;;;;5031731;28;20033;-76
2024/02/12 00:38:57;;;;;;;180.18;169.70;;;9.20;99.90;;;;;;5038115;28;20063;-76
2024/02/12 00:41:23;;;;;;;163.20;153.45;;;9.20;99.90;;;;;;5041795;28;20057;-76
2024/02/12 00:43:51;;;;;;;188.68;177.48;;;9.10;99.90;;;;;;5031901;28;20045;-75
2024/02/12 00:46:18;;;;;;;203.32;191.35;;;9.20;99.90;;;;;;5024265;28;20045;-76
2024/02/12 00:48:45;;;;;;;217.57;204.82;;;9.10;99.90;;;;;;5017121;28;20061;-76
2024/02/12 00:51:12;;;;;;;185.25;174.40;;;9.10;99.90;;;;;;5031886;28;20045;-76
2024/02/12 00:53:40;;;;;;;199.32;187.18;;;9.10;99.90;;;;;;5031542;28;20025;-76
2024/02/12 00:56:06;;;;;;;172.70;162.30;;;9.10;99.90;;;;;;5031232;28;20053;-76
2024/02/12 00:58:35;;;;;;;159.60;149.90;;;9.10;99.90;;;;;;5032111;28;20078;-76
2024/02/12 01:01:03;;;;;;;177.40;167.23;;;9.00;99.90;;;;;;5029902;28;20037;-76
2024/02/12 01:03:31;;;;;;;170.45;160.50;;;9.10;99.90;;;;;;5031843;28;20069;-76
2024/02/12 01:05:57;;;;;;;167.95;157.80;;;9.10;99.90;;;;;;5018809;28;20029;-76
2024/02/12 01:08:24;;;;;;;178.13;167.65;;;9.00;99.90;;;;;;5028105;28;20041;-75
2024/02/12 01:10:50;;;;;;;174.88;164.65;;;9.00;99.90;;;;;;5031455;28;20104;-76
2024/02/12 01:13:16;;;;;;;178.57;167.85;;;9.00;99.90;;;;;;5031802;28;20049;-76
2024/02/12 01:15:47;;;;;;;165.52;155.65;;;9.00;99.90;;;;;;5030546;28;20037;-76
2024/02/12 01:18:14;;;;;;;186.18;174.35;;;9.00;99.90;;;;;;5030983;28;20025;-76
2024/02/12 01:20:40;;;;;;;170.18;159.90;;;9.10;99.90;;;;;;5031330;28;20029;-76
2024/02/12 01:23:06;;;;;;;158.57;148.93;;;8.90;99.90;;;;;;5031289;28;20387;-77
2024/02/12 01:25:32;;;;;;;157.23;148.13;;;8.80;99.90;;;;;;5032398;28;20033;-76
2024/02/12 01:28:01;;;;;;;162.50;152.52;;;8.90;99.90;;;;;;5032286;28;20057;-76
2024/02/12 01:30:30;;;;;;;161.18;151.65;;;9.00;99.90;;;;;;5030712;28;20045;-76
2024/02/12 01:32:56;;;;;;;162.60;153.27;;;9.00;99.90;;;;;;5032125;28;20485;-76
2024/02/12 01:35:22;;;;;;;193.00;181.57;;;9.10;99.90;;;;;;5030322;28;20036;-76
2024/02/12 01:37:51;;;;;;;185.50;174.63;;;9.10;99.90;;;;;;5031195;28;20034;-75
2024/02/12 01:40:17;;;;;;;167.40;157.98;;;9.00;99.90;;;;;;5031774;28;20042;-76
2024/02/12 01:42:44;;;;;;;165.55;155.07;;;8.90;99.90;;;;;;5031899;28;20410;-76
2024/02/12 01:45:13;;;;;;;183.45;172.25;;;9.00;99.90;;;;;;5021349;28;20033;-76
2024/02/12 01:47:41;;;;;;;176.68;166.40;;;9.00;99.90;;;;;;5023216;28;20521;-76
2024/02/12 01:50:15;;;;;;;191.10;179.77;;;8.90;99.90;;;;;;5030969;28;20623;-76
2024/02/12 01:52:48;;;;;;;183.55;172.82;;;8.70;99.90;;;;;;5027579;28;20078;-76
2024/02/12 01:55:22;;;;;;;186.38;175.10;;;8.70;99.90;;;;;;5029718;28;20426;-76
2024/02/12 01:57:50;;;;;;;181.10;170.48;;;8.70;99.90;;;;;;5030623;28;20049;-76
2024/02/12 02:00:26;;;;;;;172.18;161.05;;;8.80;99.90;;;;;;5029114;28;20052;-76
2024/02/12 02:02:52;;;;;;;164.65;154.40;;;8.90;99.90;;;;;;5017472;28;20038;-76
2024/02/12 02:05:18;;;;;;;189.25;178.30;;;8.90;99.90;;;;;;5021964;28;20033;-76
2024/02/12 02:07:44;;;;;;;189.25;178.10;;;8.90;99.90;;;;;;5029567;28;20041;-75
2024/02/12 02:10:14;;;;;;;202.80;190.98;;;8.80;99.90;;;;;;5030927;28;20394;-76
2024/02/12 02:12:40;;;;;;;215.23;202.73;;;8.70;99.90;;;;;;5031058;28;20049;-76
2024/02/12 02:15:07;;;;;;;221.57;208.68;;;8.60;99.90;;;;;;5030194;28;20034;-76
2024/02/12 02:17:33;;;;;;;187.23;176.15;;;8.40;99.90;;;;;;5030483;28;20498;-76
2024/02/12 02:19:59;;;;;;;151.63;142.85;;;8.20;99.90;;;;;;5030602;28;20052;-76
2024/02/12 02:22:29;;;;;;;122.43;114.60;;;8.20;99.90;;;;;;5030485;28;20410;-76
2024/02/12 02:24:57;;;;;;;144.80;136.02;;;8.30;99.90;;;;;;5025690;28;20367;-76
2024/02/12 02:27:23;;;;;;;181.43;170.77;;;8.40;99.90;;;;;;5030165;28;20068;-76
2024/02/12 02:29:50;;;;;;;167.77;157.95;;;8.40;99.90;;;;;;5030255;28;20030;-76
2024/02/12 02:32:16;;;;;;;185.77;174.88;;;8.40;99.90;;;;;;5030311;28;20041;-76
2024/02/12 02:34:43;;;;;;;152.00;143.23;;;8.40;99.90;;;;;;5030782;28;20030;-76
2024/02/12 02:37:10;;;;;;;144.52;135.68;;;8.30;99.90;;;;;;5023318;28;20398;-76
2024/02/12 02:39:36;;;;;;;179.48;168.68;;;8.20;99.90;;;;;;5031220;28;20396;-76
2024/02/12 02:42:03;;;;;;;156.07;146.60;;;8.20;99.90;;;;;;5029861;28;20046;-76
2024/02/12 02:44:29;;;;;;;151.82;142.95;;;8.20;99.90;;;;;;5034947;28;20519;-76
2024/02/12 02:46:56;;;;;;;171.00;160.68;;;8.30;99.90;;;;;;5032877;28;20034;-76
2024/02/12 02:49:24;;;;;;;176.82;166.45;;;8.40;99.90;;;;;;5034268;28;20041;-76
2024/02/12 02:51:50;;;;;;;161.70;151.95;;;8.40;99.90;;;;;;5033527;28;20045;-76
2024/02/12 02:54:16;;;;;;;149.85;140.88;;;8.40;99.90;;;;;;5032543;28;20034;-76
2024/02/12 02:56:43;;;;;;;144.32;135.75;;;8.40;99.90;;;;;;5033569;28;20037;-76
2024/02/12 02:59:09;;;;;;;161.25;151.82;;;8.30;99.90;;;;;;5043087;28;20525;-76
2024/02/12 03:01:35;;;;;;;183.27;172.57;;;8.30;99.90;;;;;;5012708;28;20036;-76
2024/02/12 03:04:01;;;;;;;180.30;169.77;;;8.30;99.90;;;;;;5028532;28;20048;-76
2024/02/12 03:06:27;;;;;;;156.20;147.18;;;8.30;99.90;;;;;;5026830;28;20029;-76
2024/02/12 03:08:54;;;;;;;168.73;158.60;;;8.20;99.90;;;;;;5032978;28;20068;-76
2024/02/12 03:11:24;;;;;;;121.57;113.93;;;8.20;99.90;;;;;;5032797;28;20430;-76
2024/02/12 03:13:55;;;;;;;132.13;124.40;;;8.10;99.90;;;;;;5032059;28;20037;-76
2024/02/12 03:16:23;;;;;;;133.85;125.75;;;8.00;99.90;;;;;;5031997;28;20030;-76
2024/02/12 03:18:49;;;;;;;123.28;115.82;;;8.00;99.90;;;;;;5028108;28;20057;-76
2024/02/12 03:21:20;;;;;;;162.10;152.75;;;7.90;99.90;;;;;;5031825;28;20041;-76
2024/02/12 03:23:49;;;;;;;136.73;128.65;;;7.90;99.90;;;;;;5030669;28;20041;-76
2024/02/12 03:26:16;;;;;;;132.07;124.38;;;8.00;99.90;;;;;;5031875;28;20041;-76
2024/02/12 03:28:43;;;;;;;136.35;128.02;;;7.90;99.90;;;;;;5031786;28;20037;-76
2024/02/12 03:31:10;;;;;;;122.78;115.15;;;7.90;99.90;;;;;;5031254;28;20041;-76
2024/02/12 03:33:42;;;;;;;126.00;117.95;;;8.10;99.90;;;;;;5031831;28;20048;-76
2024/02/12 03:36:08;;;;;;;142.60;133.85;;;8.10;99.90;;;;;;5030524;28;20041;-76
2024/02/12 03:38:35;;;;;;;140.70;132.30;;;8.20;99.90;;;;;;5027912;28;20394;-76
2024/02/12 03:41:03;;;;;;;127.90;120.28;;;8.10;99.90;;;;;;5032555;28;20034;-77
2024/02/12 03:43:30;;;;;;;170.35;160.38;;;8.10;99.90;;;;;;5034002;28;20046;-76
2024/02/12 03:45:58;;;;;;;139.68;131.05;;;8.00;99.90;;;;;;5031811;28;20049;-76
2024/02/12 04:02:07;;;;;;;172.20;161.27;;;8.30;99.90;;;;;;5028659;28;20052;-77
2024/02/12 04:04:34;;;;;;;172.70;162.70;;;8.30;99.90;;;;;;5029471;28;20518;-76
2024/02/12 04:07:02;;;;;;;165.50;155.50;;;8.20;99.90;;;;;;5032114;28;20057;-77
2024/02/12 04:09:28;;;;;;;150.88;142.00;;;8.10;99.90;;;;;;5033110;28;20497;-76
2024/02/12 04:11:54;;;;;;;160.05;150.77;;;8.20;99.90;;;;;;5033104;28;20033;-76
2024/02/12 04:14:20;;;;;;;161.52;152.38;;;8.20;99.90;;;;;;5033251;28;20037;-76
2024/02/12 04:16:51;;;;;;;164.02;154.25;;;8.20;99.90;;;;;;5031746;28;20041;-77
2024/02/12 04:19:22;;;;;;;187.85;176.25;;;8.10;99.90;;;;;;5032236;28;20045;-77
2024/02/12 04:21:52;;;;;;;188.45;177.15;;;8.00;99.90;;;;;;5020375;28;20070;-76
2024/02/12 04:24:28;;;;;;;179.15;168.60;;;8.00;99.90;;;;;;5031410;28;20048;-76
2024/02/12 04:26:57;;;;;;;203.20;191.13;;;8.20;99.90;;;;;;5031466;28;20026;-76
2024/02/12 04:29:26;;;;;;;209.32;197.20;;;8.30;99.90;;;;;;5021647;28;20033;-76
2024/02/12 04:31:52;;;;;;;210.20;197.48;;;8.30;99.90;;;;;;5031408;28;20044;-76
2024/02/12 04:34:19;;;;;;;245.93;231.40;;;8.20;99.90;;;;;;5032225;28;20453;-76
2024/02/12 04:36:45;;;;;;;277.60;260.52;;;8.40;99.90;;;;;;5025595;28;20029;-76
2024/02/12 04:39:17;;;;;;;214.25;201.43;;;8.40;99.90;;;;;;5030761;28;20049;-76
2024/02/12 04:41:44;;;;;;;289.35;270.98;;;8.40;99.90;;;;;;5032350;28;20061;-76
2024/02/12 04:44:10;;;;;;;291.25;272.95;;;8.40;99.90;;;;;;5030836;28;20103;-77
2024/02/12 04:46:36;;;;;;;310.65;291.02;;;8.30;99.90;;;;;;5029825;28;20041;-76
2024/02/12 04:49:03;;;;;;;223.35;210.07;;;8.30;99.90;;;;;;5019010;28;20056;-76
2024/02/12 04:51:31;;;;;;;217.95;205.02;;;8.20;99.90;;;;;;5031617;28;20029;-76
2024/02/12 04:54:00;;;;;;;165.00;155.23;;;8.20;99.90;;;;;;5032416;28;20045;-76
2024/02/12 04:56:26;;;;;;;200.63;188.32;;;8.30;99.90;;;;;;5028214;28;20383;-76
2024/02/12 04:58:53;;;;;;;150.93;141.68;;;8.50;99.90;;;;;;5031500;28;20478;-76
2024/02/12 05:01:20;;;;;;;205.45;192.45;;;8.30;99.90;;;;;;5030611;28;20033;-76
2024/02/12 05:03:46;;;;;;;224.23;210.38;;;8.40;99.90;;;;;;5031376;28;20029;-76
2024/02/12 05:06:18;;;;;;;174.15;163.15;;;8.40;99.90;;;;;;5029725;28;20482;-76
2024/02/12 05:08:45;;;;;;;191.93;180.88;;;8.30;99.90;;;;;;5030892;28;20049;-76
2024/02/12 05:11:15;;;;;;;190.15;178.68;;;8.10;99.90;;;;;;5031699;28;20041;-75
2024/02/12 05:13:43;;;;;;;207.20;194.68;;;8.20;99.90;;;;;;5026141;28;20033;-75
2024/02/12 05:16:10;;;;;;;188.38;176.90;;;8.20;99.90;;;;;;5028266;28;20042;-75
2024/02/12 05:24:08;;;;;;;329.77;309.05;;;8.20;99.90;;;;;;4977473;28;20439;-77
2024/02/12 05:26:34;;;;;;;195.93;183.98;;;8.30;99.90;;;;;;4969279;28;20058;-78
2024/02/12 05:29:00;;;;;;;211.18;198.07;;;8.20;99.90;;;;;;4969793;28;20511;-78
2024/02/12 05:31:27;;;;;;;174.10;162.95;;;8.20;99.90;;;;;;4971807;28;20043;-77
2024/02/12 05:33:53;;;;;;;181.45;169.38;;;8.20;99.90;;;;;;4976879;28;20552;-78
2024/02/12 05:36:20;;;;;;;218.65;205.00;;;8.30;99.90;;;;;;4939051;28;20542;-78
2024/02/12 05:38:46;;;;;;;220.88;207.10;;;8.20;99.90;;;;;;4969735;28;20178;-78
2024/02/12 05:41:13;;;;;;;201.93;189.68;;;8.20;99.90;;;;;;4954111;28;20062;-78
2024/02/12 05:43:39;;;;;;;178.40;168.15;;;8.20;99.90;;;;;;4971975;28;20440;-78
2024/02/12 05:46:05;;;;;;;196.80;184.98;;;8.20;99.90;;;;;;4968935;28;20517;-78
2024/02/12 05:48:32;;;;;;;157.82;148.18;;;8.20;99.90;;;;;;4972986;28;20054;-78
2024/02/12 05:50:59;;;;;;;163.32;153.38;;;8.20;99.90;;;;;;4970551;28;20039;-78
2024/02/12 05:53:28;;;;;;;215.68;202.23;;;8.10;99.90;;;;;;4971063;28;20046;-78
2024/02/12 05:55:57;;;;;;;176.65;166.32;;;8.30;99.90;;;;;;4954108;28;20075;-77
2024/02/12 05:58:26;;;;;;;197.57;185.73;;;8.20;99.90;;;;;;4969118;28;20043;-78
2024/02/12 06:00:56;;;;;;;193.52;182.30;;;8.20;99.90;;;;;;4976383;28;20038;-80
2024/02/12 06:03:22;;;;;;;177.45;166.70;;;8.20;99.90;;;;;;5031263;28;20045;-80
2024/02/12 06:05:49;;;;;;;242.77;227.85;;;8.20;99.90;;;;;;5030563;28;20558;-78
2024/02/12 06:08:16;;;;;;;176.18;165.95;;;8.30;99.90;;;;;;5027492;28;20057;-78
2024/02/12 06:10:42;;;;;;;164.98;154.55;;;8.40;99.90;;;;;;5030177;28;20041;-78
2024/02/12 06:13:11;;;;;;;190.48;178.95;;;8.40;99.90;;;;;;5031720;28;20037;-78
2024/02/12 06:15:37;;;;;;;175.35;164.80;;;8.20;99.90;;;;;;5030407;28;20041;-78
2024/02/12 06:18:05;;;;;;;162.35;152.77;;;8.20;99.90;;;;;;5033045;28;20093;-78
2024/02/12 06:20:31;;;;;;;186.13;175.20;;;8.10;99.90;;;;;;5035252;28;20459;-77
2024/02/12 06:22:57;;;;;;;179.32;168.80;;;8.10;99.90;;;;;;5031785;28;20034;-78
2024/02/12 06:25:24;;;;;;;188.23;177.07;;;8.30;99.90;;;;;;5028327;28;20037;-78
2024/02/12 06:27:50;;;;;;;146.20;137.20;;;8.20;99.90;;;;;;5033893;28;20061;-78
2024/02/12 06:30:17;;;;;;;174.20;163.88;;;8.10;99.90;;;;;;5035230;28;20029;-78
2024/02/12 06:32:43;;;;;;;160.70;151.05;;;8.20;99.90;;;;;;5035200;28;20490;-78
2024/02/12 06:35:09;;;;;;;153.43;144.10;;;8.20;99.90;;;;;;5035172;28;20029;-78
2024/02/12 06:37:35;;;;;;;150.57;141.68;;;8.10;99.90;;;;;;5027293;28;20068;-78
2024/02/12 06:40:02;;;;;;;200.25;187.85;;;8.10;99.90;;;;;;5034801;28;20030;-78
2024/02/12 06:42:30;;;;;;;197.05;184.90;;;8.20;99.90;;;;;;5034409;28;20042;-78
2024/02/12 06:44:56;;;;;;;234.27;220.05;;;8.40;99.90;;;;;;5035359;28;20048;-78
2024/02/12 06:47:22;;;;;;;222.43;209.18;;;8.50;99.90;;;;;;5041450;28;20489;-78
2024/02/12 06:49:48;;;;;;;185.85;175.05;;;8.50;99.90;;;;;;5034698;28;20038;-78
2024/02/12 06:52:15;;;;;;;162.30;152.45;;;8.60;99.90;;;;;;5035112;28;20025;-78
2024/02/12 06:54:41;;;;;;;140.05;131.88;;;8.70;99.90;;;;;;5034161;28;20060;-78
2024/02/12 06:57:07;;;;;;;163.10;153.32;;;8.60;99.90;;;;;;5034212;28;20383;-78
2024/02/12 06:59:34;;;;;;;179.63;169.20;;;8.50;99.90;;;;;;5034028;28;20033;-78
2024/02/12 07:02:00;;;;;;;139.85;131.63;;;8.40;99.90;;;;;;5034383;28;20044;-78
2024/02/12 07:04:26;;;;;;;139.73;131.15;;;8.40;99.90;;;;;;5034765;28;20026;-78
2024/02/12 07:06:52;;;;;;;134.13;126.28;;;8.40;99.90;;;;;;5034517;28;20029;-78
2024/02/12 07:09:18;;;;;;;178.63;167.68;;;8.30;99.90;;;;;;5033822;28;20045;-79
2024/02/12 07:11:44;;;;;;;170.68;160.20;;;8.30;99.90;;;;;;5034024;28;20030;-77
2024/02/12 07:14:11;;;;;;;147.65;138.75;;;8.30;99.90;;;;;;5034791;28;20037;-79
2024/02/12 07:16:37;;;;;;;142.43;133.70;;;8.20;99.90;;;;;;5032851;28;20132;-78
2024/02/12 07:19:04;;;;;;;156.27;146.30;;;8.40;99.90;;;;;;5033734;28;20029;-79
2024/02/12 07:21:30;;;;;;;164.65;154.10;;;8.50;99.90;;;;;;5033500;28;20053;-79
2024/02/12 07:23:56;;;;;;;186.82;175.32;;;8.30;99.90;;;;;;5030151;28;20363;-78
2024/02/12 07:26:22;;;;;;;166.57;156.52;;;8.40;99.90;;;;;;5029255;28;20040;-78
2024/02/12 07:28:51;;;;;;;159.90;149.73;;;8.20;99.90;;;;;;5031766;28;20049;-79
2024/02/12 07:31:17;;;;;;;150.35;140.32;;;8.10;99.90;;;;;;5032541;28;20505;-78
2024/02/12 07:33:43;;;;;;;149.32;140.15;;;8.00;99.90;;;;;;5034343;28;20049;-79
2024/02/12 07:36:10;;;;;;;193.20;181.48;;;8.10;99.90;;;;;;5032370;28;20036;-78
2024/02/12 07:38:40;;;;;;;177.40;166.52;;;8.20;99.90;;;;;;5032477;28;20407;-78
2024/02/12 07:41:06;;;;;;;150.52;141.10;;;8.20;99.90;;;;;;5032146;28;20053;-78
2024/02/12 07:43:32;;;;;;;152.40;143.40;;;8.10;99.90;;;;;;5033846;28;20037;-78
2024/02/12 07:45:58;;;;;;;121.15;113.53;;;8.00;99.90;;;;;;5030651;28;20034;-81
2024/02/12 07:48:28;;;;;;;140.77;131.98;;;8.00;99.90;;;;;;5034011;28;20187;-78
2024/02/12 07:50:54;;;;;;;149.38;140.30;;;8.10;99.90;;;;;;5034341;28;20041;-79
2024/02/12 07:53:28;;;;;;;178.98;168.32;;;8.00;99.90;;;;;;5033900;28;20463;-79
2024/02/12 07:55:55;;;;;;;189.52;177.70;;;8.00;99.90;;;;;;5031113;28;20037;-78
2024/02/12 07:58:21;;;;;;;190.68;178.98;;;8.10;99.90;;;;;;5033910;28;20500;-79
2024/02/12 08:00:50;;;;;;;201.88;189.43;;;8.10;99.90;;;;;;5032115;28;20045;-78
2024/02/12 08:03:20;;;;;;;233.32;219.23;;;8.10;99.90;;;;;;5033726;28;20029;-78
2024/02/12 08:05:46;;;;;;;214.40;201.52;;;8.20;99.90;;;;;;5033020;28;20033;-78
2024/02/12 08:08:16;;;;;;;259.52;243.40;;;8.20;99.90;;;;;;5033369;28;20033;-79
2024/02/12 08:10:42;;;;;;;215.82;202.10;;;8.10;99.90;;;;;;5030731;28;20466;-78
2024/02/12 08:13:08;;;;;;;241.23;226.52;;;8.00;99.90;;;;;;5031921;28;20029;-78
2024/02/12 08:15:35;;;;;;;204.68;191.05;;;8.00;99.90;;;;;;5031002;28;20041;-79
2024/02/12 08:18:06;;;;;;;232.93;217.55;;;8.00;99.90;;;;;;5023577;28;20049;-79
2024/02/12 08:20:32;;;;;;;182.73;170.95;;;8.20;99.90;;;;;;5026254;28;20057;-78
2024/02/12 08:22:58;;;;;;;189.20;176.98;;;8.30;99.90;;;;;;5032229;28;20041;-79
2024/02/12 08:25:26;;;;;;;227.23;212.88;;;8.30;99.90;;;;;;5030259;28;20029;-79
2024/02/12 08:27:53;;;;;;;169.95;159.50;;;8.40;99.90;;;;;;5017867;28;20037;-78
2024/02/12 08:30:21;;;;;;;204.85;192.82;;;8.50;99.90;;;;;;5044920;28;20056;-79
2024/02/12 08:32:48;;;;;;;184.40;172.98;;;8.30;99.90;;;;;;5029704;28;20060;-79
2024/02/12 08:35:14;;;;;;;258.23;242.20;;;8.30;99.90;;;;;;5023722;28;20044;-79
2024/02/12 08:37:40;;;;;;;201.75;189.48;;;8.40;99.90;;;;;;5030656;28;20204;-79
2024/02/12 08:40:15;;;;;;;219.95;206.75;;;8.40;99.90;;;;;;5020823;28;20052;-79
2024/02/12 08:42:44;;;;;;;193.80;182.00;;;8.50;99.90;;;;;;5024474;28;20029;-77
2024/02/12 08:45:11;;;;;;;187.65;175.82;;;8.70;99.90;;;;;;5038549;28;20706;-80
2024/02/12 08:47:40;;;;;;;207.38;194.25;;;8.70;99.90;;;;;;5028598;28;20482;-79
2024/02/12 08:50:07;;;;;;;170.98;159.80;;;8.60;99.90;;;;;;5023655;28;20049;-79
2024/02/12 08:52:33;;;;;;;221.00;207.15;;;8.70;99.90;;;;;;5062884;28;20441;-80
2024/02/12 08:55:06;;;;;;;172.07;161.55;;;8.70;99.90;;;;;;5023893;28;20032;-79
2024/02/12 08:57:34;;;;;;;125.75;117.30;;;8.50;99.90;;;;;;5020920;28;20057;-79
2024/02/12 09:00:00;;;;;;;186.77;175.25;;;8.40;99.90;;;;;;5025464;28;20289;-79
2024/02/12 09:02:29;;;;;;;220.32;206.80;;;8.50;99.90;;;;;;5031015;28;20033;-79
2024/02/12 09:04:55;;;;;;;171.43;160.52;;;8.50;99.90;;;;;;5029987;28;20037;-79
2024/02/12 09:07:21;;;;;;;176.73;165.77;;;8.60;99.90;;;;;;5031152;28;20037;-78
2024/02/12 09:09:47;;;;;;;185.00;173.73;;;8.60;99.90;;;;;;5024182;28;20045;-78
2024/02/12 09:12:13;;;;;;;209.68;196.40;;;8.70;99.90;;;;;;5015067;28;20038;-78
2024/02/12 09:14:39;;;;;;;155.90;146.10;;;8.70;99.90;;;;;;5019538;28;20026;-79
2024/02/12 09:17:05;;;;;;;165.45;155.27;;;8.80;99.90;;;;;;5030706;28;20479;-78
2024/02/12 09:19:32;;;;;;;118.72;110.72;;;8.80;99.90;;;;;;5032261;28;20025;-78
2024/02/12 09:21:58;;;;;;;134.38;125.32;;;8.80;99.90;;;;;;5026433;28;20037;-79
2024/02/12 09:24:24;;;;;;;141.90;132.98;;;8.80;99.90;;;;;;5023531;28;20054;-78
2024/02/12 09:26:51;;;;;;;147.20;137.93;;;8.80;99.90;;;;;;5030889;28;20301;-79
2024/02/12 09:29:18;;;;;;;264.58;248.02;;;8.80;99.90;;;;;;5020563;28;20044;-79
2024/02/12 09:31:45;;;;;;;244.95;229.38;;;8.80;99.90;;;;;;5030165;28;20034;-78
2024/02/12 09:34:11;;;;;;;255.07;238.80;;;8.90;99.90;;;;;;5026812;28;20372;-79
2024/02/12 09:36:38;;;;;;;238.05;223.27;;;8.90;99.90;;;;;;5022480;28;20088;-79
2024/02/12 09:39:05;;;;;;;259.23;242.80;;;9.10;99.90;;;;;;5028362;28;20492;-79
2024/02/12 09:41:33;;;;;;;258.58;241.55;;;9.10;99.90;;;;;;5028080;28;20049;-79
2024/02/12 09:43:59;;;;;;;173.57;162.85;;;9.10;99.90;;;;;;5029728;28;20514;-79
2024/02/12 09:46:25;;;;;;;221.60;207.43;;;9.20;99.90;;;;;;5046958;28;20025;-78
2024/02/12 09:48:51;;;;;;;200.45;187.60;;;9.20;99.90;;;;;;5029273;28;20056;-81
2024/02/12 09:51:18;;;;;;;276.80;259.15;;;9.20;99.90;;;;;;5028155;28;20025;-78
2024/02/12 09:53:44;;;;;;;267.50;250.48;;;9.30;99.90;;;;;;5027557;28;20045;-79
2024/02/12 09:56:11;;;;;;;233.77;218.65;;;9.30;99.90;;;;;;5027521;28;20049;-79
2024/02/12 09:58:37;;;;;;;280.55;263.67;;;9.10;99.90;;;;;;5029447;28;20467;-79
2024/02/12 10:01:07;;;;;;;276.33;259.52;;;9.10;99.90;;;;;;5027787;28;20061;-78
2024/02/12 10:03:33;;;;;;;350.13;326.80;;;9.00;99.90;;;;;;5030248;28;20049;-78
2024/02/12 10:06:00;;;;;;;216.38;203.50;;;9.00;99.90;;;;;;5030403;28;20044;-78
2024/02/12 10:08:26;;;;;;;239.95;225.48;;;8.90;99.90;;;;;;5031216;28;20045;-78
2024/02/12 10:10:52;;;;;;;225.85;211.57;;;9.00;99.90;;;;;;5029976;28;20045;-77
2024/02/12 10:13:23;;;;;;;161.63;151.93;;;9.10;99.90;;;;;;5030308;28;20021;-78
2024/02/12 10:15:50;;;;;;;195.55;183.88;;;9.10;99.90;;;;;;5021890;28;20026;-78
2024/02/12 10:18:16;;;;;;;234.52;220.75;;;9.10;99.90;;;;;;5029326;28;20025;-78
2024/02/12 10:20:43;;;;;;;188.82;177.57;;;9.10;99.90;;;;;;5030151;28;20033;-78
2024/02/12 10:23:09;;;;;;;253.73;239.02;;;9.10;99.90;;;;;;5063294;28;20040;-77
2024/02/12 10:25:50;;;;;;;235.40;221.32;;;9.10;99.90;;;;;;5029017;28;20486;-78
2024/02/12 10:28:17;;;;;;;219.90;206.75;;;9.10;99.90;;;;;;5043333;28;20046;-78
2024/02/12 10:30:47;;;;;;;216.02;203.57;;;9.10;99.90;;;;;;5024037;28;20045;-78
2024/02/12 10:33:14;;;;;;;344.80;320.30;;;9.20;99.90;;;;;;5030600;28;20042;-78
2024/02/12 10:35:46;;;;;;;302.45;282.67;;;9.20;99.90;;;;;;5028794;28;20041;-78
2024/02/12 10:38:13;;;;;;;251.68;236.50;;;9.20;99.90;;;;;;5028696;28;20030;-79
2024/02/12 10:41:05;;;;;;;197.23;185.95;;;9.20;99.90;;;;;;5029823;28;20160;-79
2024/02/12 10:43:34;;;;;;;234.50;220.60;;;9.20;99.90;;;;;;5029375;28;20037;-78
2024/02/12 10:46:00;;;;;;;222.57;209.23;;;9.30;99.90;;;;;;5026451;28;20037;-78
2024/02/12 10:48:30;;;;;;;251.63;236.15;;;9.30;99.90;;;;;;5030504;28;20029;-77
2024/02/12 10:50:56;;;;;;;308.23;289.23;;;9.40;99.90;;;;;;5031098;28;20041;-78
2024/02/12 10:53:26;;;;;;;254.40;239.60;;;9.50;99.90;;;;;;5030155;28;20044;-77
2024/02/12 10:55:53;;;;;;;250.25;235.13;;;9.40;99.90;;;;;;5022768;28;20053;-77
2024/02/12 10:58:19;;;;;;;301.13;282.63;;;9.50;99.90;;;;;;5013187;28;20045;-78
2024/02/12 11:00:57;;;;;;;326.92;306.70;;;9.50;99.90;;;;;;5014546;28;20046;-78
2024/02/12 11:03:32;;;;;;;312.55;293.45;;;9.50;99.90;;;;;;5026428;28;20044;-78
2024/02/12 11:06:02;;;;;;;212.60;200.27;;;9.50;99.90;;;;;;5021669;28;20056;-78
2024/02/12 11:08:28;;;;;;;270.13;252.95;;;9.60;99.90;;;;;;5028702;28;20045;-78
2024/02/12 11:10:59;;;;;;;225.93;211.80;;;9.50;99.90;;;;;;5029673;28;20037;-78
2024/02/12 11:13:33;;;;;;;323.40;302.35;;;9.50;99.90;;;;;;5031585;28;20053;-77
2024/02/12 11:16:00;;;;;;;285.38;267.77;;;9.60;99.90;;;;;;5030368;28;20387;-78
2024/02/12 11:18:32;;;;;;;411.67;384.58;;;9.80;99.90;;;;;;5031825;28;20390;-77
2024/02/12 11:20:59;;;;;;;269.67;252.20;;;9.90;99.90;;;;;;5015676;28;20045;-78
2024/02/12 11:23:25;;;;;;;287.63;269.98;;;9.90;99.90;;;;;;5033729;28;20037;-78
2024/02/12 11:26:00;;;;;;;289.25;271.77;;;10.00;99.90;;;;;;5033531;28;20049;-78
2024/02/12 11:28:27;;;;;;;298.90;280.60;;;10.10;99.90;;;;;;5033509;28;20394;-78
2024/02/12 11:30:53;;;;;;;243.13;228.60;;;10.10;99.90;;;;;;5031889;28;20052;-78
2024/02/12 11:33:20;;;;;;;326.25;303.27;;;10.30;99.90;;;;;;5032824;28;20033;-78
2024/02/12 11:35:46;;;;;;;265.05;249.52;;;10.30;99.90;;;;;;5030720;28;20152;-79
2024/02/12 11:38:14;;;;;;;244.10;229.23;;;10.20;99.90;;;;;;5031517;28;20942;-78
2024/02/12 11:40:41;;;;;;;250.85;235.27;;;10.20;99.90;;;;;;5032411;28;20057;-77
2024/02/12 11:43:07;;;;;;;238.98;224.65;;;10.20;99.90;;;;;;5027360;28;20516;-78
2024/02/12 11:45:35;;;;;;;187.52;176.77;;;10.30;99.90;;;;;;5029945;28;20517;-78
2024/02/12 11:48:07;;;;;;;223.25;210.40;;;10.30;99.90;;;;;;5019562;28;20522;-78
2024/02/12 11:50:34;;;;;;;297.55;279.15;;;10.50;99.90;;;;;;5031522;28;20434;-78
2024/02/12 11:53:01;;;;;;;338.77;317.15;;;10.40;99.90;;;;;;5032731;28;20046;-78
2024/02/12 11:55:31;;;;;;;324.60;304.75;;;10.60;99.90;;;;;;5029768;28;20049;-78
2024/02/12 11:57:58;;;;;;;250.30;234.07;;;10.70;99.90;;;;;;5025902;28;20052;-76
2024/02/12 12:00:24;;;;;;;287.33;269.63;;;10.80;99.90;;;;;;5031290;28;20029;-79
2024/02/12 12:02:51;;;;;;;199.32;187.05;;;10.70;99.90;;;;;;5056152;28;20029;-78
2024/02/12 12:05:22;;;;;;;335.85;315.98;;;10.70;99.90;;;;;;5028378;28;20025;-78
2024/02/12 12:07:48;;;;;;;274.90;258.90;;;10.60;99.90;;;;;;5029953;28;20048;-78
2024/02/12 12:10:25;;;;;;;639.72;381.75;;;10.70;99.90;;;;;;5027380;28;20056;-78
2024/02/12 12:12:51;;;;;;;245.27;231.00;;;10.80;99.90;;;;;;5032136;28;20509;-78
2024/02/12 12:15:17;;;;;;;653.15;394.73;;;10.80;99.90;;;;;;5061113;28;20033;-78
2024/02/12 12:17:44;;;;;;;181.88;171.85;;;10.80;99.90;;;;;;5031341;28;20037;-78
2024/02/12 12:20:12;;;;;;;1999.90;999.90;;;10.90;99.90;;;;;;5030920;28;20037;-79
2024/02/12 12:22:39;;;;;;;1999.90;999.90;;;11.10;99.90;;;;;;5025296;28;20048;-78
2024/02/12 12:25:09;;;;;;;1999.90;999.90;;;11.20;99.90;;;;;;5030528;28;20731;-78
2024/02/12 12:27:38;;;;;;;1999.90;999.90;;;11.30;99.90;;;;;;5031760;28;20486;-78
2024/02/12 12:30:18;;;;;;;1999.90;999.90;;;11.40;99.90;;;;;;5028842;28;20052;-78
2024/02/12 12:32:47;;;;;;;1999.90;999.90;;;11.40;99.90;;;;;;5022443;28;20497;-78
2024/02/12 12:35:14;;;;;;;1999.90;999.90;;;11.40;99.90;;;;;;5030678;28;20045;-78
2024/02/12 12:37:41;;;;;;;1999.90;999.90;;;11.30;99.90;;;;;;5031987;28;22269;-77